Tiempo atmosférico en la estación meteorológica de Antigua, Las Palmas (252 m.)



Fecha
DESCASC
Temp. máxima en grados centígrados (hora)
DESCASC
Temp. mínima en grados centígrados (hora)
DESCASC
Temp. media en grados centígrados
DESCASC
Racha de viento máxima en m/sg (hora)
DESCASC
Velocidad máxima media en intervalos de 10 minutos(hora)
DESCASC
Precipitaciones diarias en mm
DESCASC
Precipitaciones de 00:00 a 06:00 en mm
DESCASC
Precipitaciones de 06:00 a 12:00 en mm
DESCASC
Precipitaciones de 12:00 a 18:00 en mm
DESCASC
Precipitaciones de 18:00 a 24:00 en mm
DESCASC
16-04-2019 25.4 (15:30) 13.6 (06:20) 19.5 11.94 (22:50) 10 (22:50) 0 0 0 0 0
15-04-2019 23 (14:00) 14.5 (06:10) 18.8 12.5 (03:50) 8.89 (04:20) 0 0 0 0 0
14-04-2019 24.7 (13:40) 13.1 (00:00) 18.9 11.67 (18:30) 9.17 (18:30) 0 0 0 0 0
13-04-2019 23.1 (14:20) 13 (00:00) 18.1 13.61 (18:00) 10 (01:40) 0 0 0 0 0
12-04-2019 20.7 (15:00) 13 (00:00) 16.9 15 (15:30) 11.11 (04:50) 0 0 0 0 0
11-04-2019 20.1 (14:30) 13.8 (00:00) 17 17.22 (17:10) 11.94 (17:00) 0 0 0 0 0
10-04-2019 19.6 (15:00) 13.5 (00:00) 16.6 15.83 (17:10) 11.39 (17:20) 0 0 0 0 0
09-04-2019 20.8 (16:10) 12.8 (00:00) 16.8 13.89 (14:40) 9.44 (16:40) 0 0 0 0 0
08-04-2019 20.6 (14:00) 13.5 (00:00) 17.1 10.83 (16:10) 7.5 (17:10) 0.2 0 0.2 0 0
07-04-2019 20.4 (14:40) 12.6 (00:00) 16.5 10.28 (16:50) 7.78 (16:50) 0.2 0 0.2 0 0
06-04-2019 18.1 (16:20) 12.9 (00:00) 15.5 13.61 (14:30) 9.72 (15:00) 0.4 0.4 0 0 0
05-04-2019 19.7 (13:40) 13.6 (00:00) 16.7 15.83 (16:00) 10 (16:10) 0.8 0 0 0.4 0.4
04-04-2019 19.6 (15:00) 14.5 (00:00) 17.1 10.56 (16:30) 7.78 (16:30) 0.4 0.4 0 0 0
03-04-2019 20.1 (14:00) 14.5 (00:00) 17.3 14.17 (16:00) 10.83 (16:00) 0 0 0 0 0
02-04-2019 24 (16:00) 13.5 (00:00) 18.8 11.67 (18:20) 8.89 (17:40) 0 0 0 0 0
01-04-2019 20.1 (12:40) 13.3 (00:00) 16.7 6.67 (14:10) 3.89 (14:10) 0 0 0 0 0
31-03-2019 19.8 (13:40) 13.9 (00:00) 16.8 11.94 (16:40) 10 (18:50) 0 0 0 0 0
30-03-2019 20.4 (14:40) 11.1 (00:00) 15.8 9.72 (15:40) 6.67 (19:50) 0 0 0 0 0
29-03-2019 20.2 (13:10) 11.5 (00:00) 15.9 7.5 (16:30) 5.83 (16:30) 1.4 0 0 1.4 0
28-03-2019 20 (12:10) 13.2 (00:00) 16.6 8.06 (13:10) 4.44 (13:10) 22.2 0 0 22.2 0
27-03-2019 20.6 (12:30) 12 (00:00) 16.3 8.61 (17:00) 6.67 (16:40) 0 0 0 0 0
26-03-2019 19.2 (16:10) 11.9 (00:00) 15.6 7.22 (17:00) 5.28 (16:40) 26.6 0 5.4 21.2 0
25-03-2019 20.3 (12:30) 12.8 (00:00) 16.5 11.39 (18:40) 7.78 (12:50) 1.8 0 0 0 1.8
24-03-2019 22.1 (13:50) 11.6 (00:00) 16.9 10.56 (18:30) 8.33 (18:30) 0 0 0 0 0
23-03-2019 20 (13:00) 13.1 (00:00) 16.6 16.11 (18:40) 12.5 (18:50) 0 0 0 0 0
22-03-2019 21.3 (14:30) 11.6 (00:00) 16.4 11.11 (11:00) 6.94 (09:40) 0 0 0 0 0
21-03-2019 20.6 (13:50) 13.4 (00:00) 17 11.11 (15:50) 8.33 (16:50) 0 0 0 0 0
20-03-2019 21.6 (13:20) 11.3 (00:00) 16.5 9.72 (04:30) 7.22 (04:30) 0 0 0 0 0
19-03-2019 21.1 (13:40) 12 (00:00) 16.6 12.5 (15:30) 9.44 (15:20) 0 0 0 0 0

Gráficas

Temp. máximas Temp. mínimas Temp. medias Precipitaciones Rachas de viento máximas Velocidades máximas media en intervalos de 10 minutos

Datos horarios

Fecha y hora oficial Temperatura (ºC) Velocidad del viento (km/h) Dirección del viento Racha (km/h) Dirección de racha Precipitación (mm) Presión (hPa) Tendencia (hPa) Humedad (%)
2019-04-17 23:00:00 -- -- -- -- -- -- -- -- --
2019-04-17 22:00:00 -- -- -- -- -- -- -- -- --
2019-04-17 21:00:00 -- -- -- -- -- -- -- -- --
2019-04-17 20:00:00 -- -- -- -- -- -- -- -- --
2019-04-17 19:00:00 -- -- -- -- -- -- -- -- --
2019-04-17 18:00:00 -- -- -- -- -- -- -- -- --
2019-04-17 17:00:00 -- -- -- -- -- -- -- -- --
2019-04-17 16:00:00 -- -- -- -- -- -- -- -- --
2019-04-17 15:00:00 -- -- -- -- -- -- -- -- --
2019-04-17 14:00:00 -- -- -- -- -- -- -- -- --
2019-04-17 13:00:00 -- -- -- -- -- -- -- -- --
2019-04-17 12:00:00 -- -- -- -- -- -- -- -- --
2019-04-17 11:00:00 19.4 21 Noroeste 32 Noroeste 0 -- -- 66
2019-04-17 10:00:00 18.4 13 Noroeste 24 Noroeste 0 -- -- 69
2019-04-17 09:00:00 16.7 13 Oeste 19 Oeste 0 -- -- 76
2019-04-17 08:00:00 15.1 8 Noroeste 15 Noroeste 0 -- -- 85
2019-04-17 07:00:00 14.9 10 Noroeste 27 Noroeste 0 -- -- 85
2019-04-17 06:00:00 15.5 17 Noroeste 29 Noroeste 0 -- -- 84
2019-04-17 05:00:00 14.3 10 Noroeste 16 Noroeste 0 -- -- 90
2019-04-17 04:00:00 14.8 13 Noroeste 21 Noroeste 0 -- -- 89
2019-04-17 03:00:00 15.8 18 Noroeste 37 Noroeste 0 -- -- 89
2019-04-17 02:00:00 16.1 28 Noroeste 39 Noroeste 0 -- -- 89
2019-04-17 01:00:00 16.1 17 Noroeste 32 Noroeste 0 -- -- 81
2019-04-17 00:00:00 16.2 21 Noroeste 36 Noroeste 0 -- -- 86
2019-04-16 23:00:00 16.3 31 Noroeste 43 Noroeste 0 -- -- 82
2019-04-16 22:00:00 16.9 24 Noroeste 30 Noroeste 0 -- -- 79
2019-04-16 21:00:00 17.3 17 Noroeste 26 Noroeste 0 -- -- 82
2019-04-16 20:00:00 19.1 15 Norte 23 Norte 0 -- -- 73
2019-04-16 19:00:00 20.1 18 Norte 31 Noroeste 0 -- -- 69
2019-04-16 18:00:00 20.4 24 Noroeste 37 Noroeste 0 -- -- 68
2019-04-16 17:00:00 21.5 27 Norte 37 Norte 0 -- -- 62
2019-04-16 16:00:00 25 12 Este 24 Este 0 -- -- 45
2019-04-16 15:00:00 24.7 9 Este 23 Este 0 -- -- 40
2019-04-16 14:00:00 24.1 9 Sudeste 21 Este 0 -- -- 39
2019-04-16 13:00:00 22.7 8 Sudeste 18 Este 0 -- -- 43
2019-04-16 12:00:00 21 3 Este 15 Este 0 -- -- 61
2019-04-16 11:00:00 19.2 6 Sudeste 21 Este 0 -- -- 70
2019-04-16 10:00:00 18.2 8 Este 15 Este 0 -- -- 73
2019-04-16 09:00:00 16.1 2 Nordeste 9 Oeste 0 -- -- 85
2019-04-16 08:00:00 13.8 5 Oeste 13 Noroeste 0 -- -- 92
2019-04-16 07:00:00 13.8 4 Oeste 9 Noroeste 0 -- -- 93
2019-04-16 06:00:00 13.7 3 Norte 13 Nordeste 0 -- -- 93
2019-04-16 05:00:00 14.4 7 Nordeste 14 Nordeste 0 -- -- 93
2019-04-16 04:00:00 14.4 4 Noroeste 14 Norte 0 -- -- 91
2019-04-16 03:00:00 15 4 Norte 10 Norte 0 -- -- 89
2019-04-16 02:00:00 15.4 6 Nordeste 20 Este 0 -- -- 87
2019-04-16 01:00:00 15.8 15 Nordeste 25 Nordeste 0 -- -- 86
2019-04-16 00:00:00 15.9 15 Nordeste 29 Nordeste 0 -- -- 86
2019-04-15 23:00:00 16.4 18 Nordeste 27 Nordeste 0 -- -- 88
2019-04-15 22:00:00 16.6 5 Nordeste 20 Nordeste 0 -- -- 84
2019-04-15 21:00:00 17.4 10 Nordeste 25 Nordeste 0 -- -- 73
2019-04-15 20:00:00 18.7 16 Nordeste 27 Nordeste 0 -- -- 69
2019-04-15 19:00:00 19.9 19 Nordeste 27 Nordeste 0 -- -- 67
2019-04-15 18:00:00 20.7 21 Nordeste 32 Este 0 -- -- 61
2019-04-15 17:00:00 21.8 21 Nordeste 30 Nordeste 0 -- -- 56
2019-04-15 16:00:00 22 20 Nordeste 30 Nordeste 0 -- -- 53
2019-04-15 15:00:00 22.7 17 Este 34 Este 0 -- -- 52
2019-04-15 14:00:00 23 13 Nordeste 23 Nordeste 0 -- -- 43
2019-04-15 13:00:00 22 12 Nordeste 26 Nordeste 0 -- -- 51
2019-04-15 12:00:00 20.9 15 Nordeste 27 Este 0 -- -- 56
2019-04-15 11:00:00 19.2 13 Norte 33 Norte 0 -- -- 67
2019-04-15 10:00:00 18.2 24 Norte 34 Noroeste 0 -- -- 71
2019-04-15 09:00:00 16.4 20 Norte 29 Norte 0 -- -- 79
2019-04-15 08:00:00 15.1 16 Norte 26 Noroeste 0 -- -- 82
2019-04-15 07:00:00 14.9 21 Norte 38 Noroeste 0 -- -- 83
2019-04-15 06:00:00 14.7 22 Noroeste 36 Noroeste 0 -- -- 83
2019-04-15 05:00:00 15 26 Noroeste 44 Noroeste 0 -- -- 82
2019-04-15 04:00:00 15.2 31 Noroeste 45 Noroeste 0 -- -- 82
2019-04-15 03:00:00 15.1 26 Noroeste 41 Noroeste 0 -- -- 88
2019-04-15 02:00:00 15.3 20 Noroeste 33 Noroeste 0 -- -- 89
2019-04-15 01:00:00 15.5 22 Noroeste 34 Noroeste 0 -- -- 86
2019-04-15 00:00:00 15.5 22 Noroeste 37 Noroeste 0 -- -- 86
2019-04-14 23:00:00 15.6 23 Noroeste 42 Noroeste 0 -- -- 87
2019-04-14 22:00:00 15.8 31 Noroeste 42 Noroeste 0 -- -- 87
2019-04-14 21:00:00 16.1 23 Noroeste 42 Norte 0 -- -- 84
2019-04-14 20:00:00 16.9 27 Noroeste 40 Noroeste 0 -- -- 81
2019-04-14 19:00:00 18.5 31 Norte 42 Noroeste 0 -- -- 74
2019-04-14 18:00:00 20.1 32 Norte 40 Norte 0 -- -- 68
2019-04-14 17:00:00 21.3 26 Norte 36 Norte 0 -- -- 66
2019-04-14 16:00:00 21.5 26 Norte 36 Norte 0 -- -- 67
2019-04-14 15:00:00 22.3 26 Norte 34 Norte 0 -- -- 64
2019-04-14 14:00:00 24.3 18 Norte 26 Noroeste 0 -- -- 55
2019-04-14 13:00:00 24.3 4 Este 13 Sudeste 0 -- -- 49
2019-04-14 12:00:00 22.1 5 Nordeste 14 Este 0 -- -- 54
2019-04-14 11:00:00 20.3 7 Sudeste 17 Sudeste 0 -- -- 60
2019-04-14 10:00:00 18.9 5 Sur 15 Este 0 -- -- 62
2019-04-14 09:00:00 16.6 7 Norte 12 Norte 0 -- -- 71
2019-04-14 08:00:00 14.2 11 Noroeste 15 Oeste 0 -- -- 79
2019-04-14 07:00:00 13.3 4 Noroeste 19 Noroeste 0 -- -- 72
2019-04-14 06:00:00 14.1 17 Noroeste 24 Noroeste 0 -- -- 72
2019-04-14 05:00:00 13.9 14 Noroeste 21 Noroeste 0 -- -- 61
2019-04-14 04:00:00 13.7 5 Noroeste 14 Noroeste 0 -- -- 63
2019-04-14 03:00:00 14.3 6 Noroeste 19 Nordeste 0 -- -- 59
2019-04-14 02:00:00 15.3 8 Norte 24 Nordeste 0 -- -- 56
2019-04-14 01:00:00 13.9 3 Noroeste 13 Noroeste 0 -- -- 70
2019-04-14 00:00:00 14 9 Noroeste 22 Noroeste 0 -- -- 86
2019-04-13 23:00:00 14.7 19 Noroeste 32 Norte 0 -- -- 88
2019-04-13 22:00:00 15.2 22 Norte 40 Norte 0 -- -- 85
2019-04-13 21:00:00 15.7 26 Norte 40 Norte 0 -- -- 82
2019-04-13 20:00:00 16.9 30 Norte 44 Noroeste 0 -- -- 77
2019-04-13 19:00:00 19 32 Norte 45 Noroeste 0 -- -- 67
2019-04-13 18:00:00 20.3 35 Noroeste 49 Noroeste 0 -- -- 64
2019-04-13 17:00:00 21.5 31 Noroeste 44 Noroeste 0 -- -- 59
2019-04-13 16:00:00 21.4 32 Noroeste 46 Noroeste 0 -- -- 60
2019-04-13 15:00:00 22.4 26 Norte 36 Noroeste 0 -- -- 55
2019-04-13 14:00:00 22.8 24 Nordeste 37 Nordeste 0 -- -- 36
2019-04-13 13:00:00 22.3 21 Nordeste 31 Norte 0 -- -- 40
2019-04-13 12:00:00 20.9 18 Norte 35 Norte 0 -- -- 53
2019-04-13 11:00:00 19.4 20 Norte 36 Norte 0 -- -- 57
2019-04-13 10:00:00 17 18 Norte 26 Noroeste 0 -- -- 69
2019-04-13 09:00:00 15 9 Norte 19 Noroeste 0 -- -- 79
2019-04-13 08:00:00 13.1 10 Noroeste 31 Norte 0 -- -- 86
2019-04-13 07:00:00 13.3 20 Norte 32 Norte 0 -- -- 84
2019-04-13 06:00:00 13.4 21 Norte 38 Noroeste 0 -- -- 83
2019-04-13 05:00:00 13.9 25 Norte 37 Norte 0 -- -- 82
2019-04-13 04:00:00 13.7 23 Noroeste 39 Norte 0 -- -- 82
2019-04-13 03:00:00 13.9 28 Noroeste 44 Norte 0 -- -- 80
2019-04-13 02:00:00 14.3 34 Noroeste 47 Noroeste 0 -- -- 78
2019-04-13 01:00:00 14.3 28 Norte 40 Noroeste 0 -- -- 77
2019-04-13 00:00:00 14.6 29 Norte 49 Norte 0 -- -- 75
2019-04-12 23:00:00 15 35 Norte 45 Norte 0 -- -- 76
2019-04-12 22:00:00 15.4 27 Norte 42 Norte 0 -- -- 76
2019-04-12 21:00:00 15.5 30 Norte 46 Norte 0 -- -- 71
2019-04-12 20:00:00 16.3 33 Norte 48 Norte 0 -- -- 72
2019-04-12 19:00:00 17.4 33 Norte 46 Noroeste 0 -- -- 70
2019-04-12 18:00:00 18.7 33 Norte 49 Norte 0 -- -- 64
2019-04-12 17:00:00 19.3 36 Norte 52 Noroeste 0 -- -- 56
2019-04-12 16:00:00 19.7 35 Noroeste 54 Noroeste 0 -- -- 57
2019-04-12 15:00:00 20.7 29 Norte 51 Noroeste 0 -- -- 52
2019-04-12 14:00:00 20.3 35 Norte 48 Norte 0 -- -- 54
2019-04-12 13:00:00 20.1 30 Norte 46 Norte 0 -- -- 52
2019-04-12 12:00:00 19 31 Norte 45 Norte 0 -- -- 55
2019-04-12 11:00:00 17.5 30 Norte 45 Norte 0 -- -- 61
2019-04-12 10:00:00 16.9 32 Norte 49 Norte 0 -- -- 62
2019-04-12 09:00:00 15.5 33 Norte 43 Norte 0 -- -- 69
2019-04-12 08:00:00 13.7 21 Norte 32 Norte 0 -- -- 76
2019-04-12 07:00:00 13.1 24 Noroeste 42 Norte 0 -- -- 77
2019-04-12 06:00:00 13.5 32 Noroeste 47 Noroeste 0 -- -- 76
2019-04-12 05:00:00 13.7 39 Noroeste 50 Norte 0 -- -- 75
2019-04-12 04:00:00 13.8 32 Noroeste 46 Norte 0 -- -- 76
2019-04-12 03:00:00 14.1 34 Norte 44 Norte 0 -- -- 78
2019-04-12 02:00:00 14.2 29 Norte 42 Norte 0 -- -- 77
2019-04-12 01:00:00 14.6 34 Norte 47 Norte 0 -- -- 72
2019-04-12 00:00:00 15 31 Norte 47 Norte 0 -- -- 71
2019-04-11 23:00:00 15 29 Norte 46 Norte 0 -- -- 72
2019-04-11 22:00:00 15 29 Norte 43 Norte 0 -- -- 74
2019-04-11 21:00:00 14.9 28 Norte 46 Norte 0 -- -- 72
2019-04-11 20:00:00 15.4 30 Norte 54 Norte 0 -- -- 69
2019-04-11 19:00:00 16.8 35 Norte 56 Norte 0 -- -- 63
2019-04-11 18:00:00 18.1 36 Norte 62 Noroeste 0 -- -- 61
2019-04-11 17:00:00 18.8 43 Norte 60 Norte 0 -- -- 60
2019-04-11 16:00:00 19.6 41 Norte 60 Noroeste 0 -- -- 57
2019-04-11 15:00:00 19.9 39 Norte 61 Noroeste 0 -- -- 53
2019-04-11 14:00:00 19.8 32 Norte 51 Norte 0 -- -- 58
2019-04-11 13:00:00 19.3 36 Norte 53 Norte 0 -- -- 57
2019-04-11 12:00:00 19.2 29 Norte 47 Norte 0 -- -- 55
2019-04-11 11:00:00 17.4 32 Norte 46 Norte 0 -- -- 63
2019-04-11 10:00:00 16.6 23 Norte 44 Norte 0 -- -- 64
2019-04-11 09:00:00 15.6 21 Norte 44 Norte 0 -- -- 69
2019-04-11 08:00:00 14.4 26 Norte 42 Norte 0 -- -- 73
2019-04-11 07:00:00 14.3 24 Norte 44 Norte 0 -- -- 76
2019-04-11 06:00:00 14.2 28 Norte 40 Norte 0 -- -- 74
2019-04-11 05:00:00 14 24 Norte 41 Norte 0 -- -- 74
2019-04-11 04:00:00 13.9 28 Norte 39 Norte 0 -- -- 77
2019-04-11 03:00:00 14.3 28 Norte 38 Norte 0 -- -- 74
2019-04-11 02:00:00 14.6 23 Norte 37 Norte 0 -- -- 72
2019-04-11 01:00:00 15 23 Norte 35 Norte 0 -- -- 70
2019-04-11 00:00:00 15.1 22 Norte 42 Norte 0 -- -- 72
2019-04-10 23:00:00 15.2 24 Norte 42 Norte 0 -- -- 72
2019-04-10 22:00:00 15.5 30 Norte 46 Norte 0 -- -- 70
2019-04-10 21:00:00 15.4 27 Norte 49 Norte 0 -- -- 69
2019-04-10 20:00:00 16.3 35 Norte 57 Norte 0 -- -- 75
2019-04-10 19:00:00 17.1 39 Norte 54 Norte 0 -- -- 63
2019-04-10 18:00:00 18 39 Norte 57 Norte 0 -- -- 61
2019-04-10 17:00:00 19 36 Norte 56 Norte 0 -- -- 55
2019-04-10 16:00:00 18.5 40 Norte 53 Norte 0 -- -- 64
2019-04-10 15:00:00 19.6 34 Norte 50 Noroeste 0 -- -- 54
2019-04-10 14:00:00 18.8 36 Norte 51 Norte 0 -- -- 60
2019-04-10 13:00:00 18.3 27 Norte 45 Norte 0 -- -- 60
2019-04-10 12:00:00 18.2 27 Norte 45 Norte 0 -- -- 55
2019-04-10 11:00:00 18.2 28 Norte 44 Norte 0 -- -- 58
2019-04-10 10:00:00 16.5 28 Norte 40 Norte 0 -- -- 59
2019-04-10 09:00:00 15.5 24 Norte 37 Nordeste 0 -- -- 62
2019-04-10 08:00:00 14.2 24 Norte 37 Norte 0 -- -- 65
2019-04-10 07:00:00 14.4 23 Norte 38 Norte 0 -- -- 66
2019-04-10 06:00:00 14.6 28 Norte 40 Norte 0 -- -- 66
2019-04-10 05:00:00 14.6 29 Norte 44 Norte 0 -- -- 68
2019-04-10 04:00:00 13.8 16 Norte 32 Norte 0 -- -- 71
2019-04-10 03:00:00 14 21 Norte 40 Norte 0 -- -- 69
2019-04-10 02:00:00 14.2 15 Norte 34 Norte 0 -- -- 69
2019-04-10 01:00:00 14.9 23 Norte 41 Norte 0 -- -- 68
2019-04-10 00:00:00 14.9 19 Norte 33 Norte 0 -- -- 70
2019-04-09 23:00:00 14.3 18 Norte 32 Norte 0 -- -- 70
2019-04-09 22:00:00 14.4 21 Norte 33 Noroeste 0 -- -- 71
2019-04-09 21:00:00 15 22 Norte 34 Norte 0 -- -- 70
2019-04-09 20:00:00 16.2 26 Norte 38 Norte 0 -- -- 68
2019-04-09 19:00:00 17.9 27 Noroeste 37 Noroeste 0 -- -- 65
2019-04-09 18:00:00 18.9 27 Noroeste 44 Norte 0 -- -- 60
2019-04-09 17:00:00 19.8 31 Noroeste 47 Noroeste 0 -- -- 57
2019-04-09 16:00:00 20.6 27 Norte 42 Norte 0 -- -- 58
2019-04-09 15:00:00 19.9 24 Norte 50 Norte 0 -- -- 63
2019-04-09 14:00:00 20.4 25 Norte 41 Noroeste 0 -- -- 59
2019-04-09 13:00:00 19.6 27 Norte 45 Norte 0 -- -- 64
2019-04-09 12:00:00 18.9 25 Norte 37 Norte 0 -- -- 64
2019-04-09 11:00:00 17.9 17 Norte 27 Norte 0 -- -- 73
2019-04-09 10:00:00 17.1 17 Norte 25 Noroeste 0 -- -- 84
2019-04-09 09:00:00 16.2 13 Noroeste 18 Noroeste 0 -- -- 81
2019-04-09 08:00:00 14.7 7 Norte 18 Noroeste 0 -- -- 87
2019-04-09 07:00:00 13.8 12 Noroeste 15 Noroeste 0 -- -- 90
2019-04-09 06:00:00 13.3 13 Noroeste 21 Norte 0 -- -- 88
2019-04-09 05:00:00 13.2 14 Noroeste 19 Norte 0 -- -- 89
2019-04-09 04:00:00 13.8 15 Noroeste 24 Norte 0 -- -- 85
2019-04-09 03:00:00 14 21 Noroeste 25 Norte 0 -- -- 82
2019-04-09 02:00:00 13.7 15 Noroeste 19 Noroeste 0 -- -- 79
2019-04-09 01:00:00 13.4 8 Norte 18 Noroeste 0 -- -- 75
2019-04-09 00:00:00 13.7 12 Norte 30 Norte 0 -- -- 73
2019-04-08 23:00:00 14.8 18 Norte 28 Norte 0 -- -- 69
2019-04-08 22:00:00 15.2 19 Noroeste 32 Noroeste 0 -- -- 71
2019-04-08 21:00:00 15.5 24 Noroeste 37 Noroeste 0 -- -- 70
2019-04-08 20:00:00 16.3 24 Noroeste 36 Norte 0 -- -- 66
2019-04-08 19:00:00 17.4 25 Norte 37 Noroeste 0 -- -- 63
2019-04-08 18:00:00 18.6 27 Noroeste 39 Noroeste 0 -- -- 57
2019-04-08 17:00:00 19.3 26 Noroeste 39 Norte 0 -- -- 58
2019-04-08 16:00:00 19.6 24 Norte 36 Norte 0 -- -- 60
2019-04-08 15:00:00 20 21 Norte 35 Noroeste 0 -- -- 58
2019-04-08 14:00:00 20.6 23 Noroeste 32 Norte 0 -- -- 54
2019-04-08 13:00:00 19.7 22 Norte 32 Norte 0 -- -- 56
2019-04-08 12:00:00 18.6 21 Norte 36 Norte 0 -- -- 65
2019-04-08 11:00:00 17.7 19 Norte 28 Norte 0 -- -- 72
2019-04-08 10:00:00 15.1 9 Noroeste 22 Noroeste 0 -- -- 93
2019-04-08 09:00:00 14.3 17 Noroeste 26 Norte 0 -- -- 95
2019-04-08 08:00:00 14 5 Norte 14 Noroeste 0.2 -- -- 93
2019-04-08 07:00:00 14 12 Noroeste 16 Noroeste 0 -- -- 92
2019-04-08 06:00:00 14.2 13 Noroeste 18 Noroeste 0 -- -- 92
2019-04-08 05:00:00 14.2 13 Noroeste 23 Noroeste 0 -- -- 91
2019-04-08 04:00:00 13.6 11 Noroeste 17 Noroeste 0 -- -- 92
2019-04-08 03:00:00 13.9 12 Noroeste 19 Norte 0 -- -- 90
2019-04-08 02:00:00 14.4 16 Norte 22 Norte 0 -- -- 90
2019-04-08 01:00:00 14.7 15 Norte 23 Noroeste 0 -- -- 88
2019-04-08 00:00:00 15.1 17 Norte 26 Norte 0 -- -- 87
2019-04-07 23:00:00 15.6 18 Norte 31 Noroeste 0 -- -- 87
2019-04-07 22:00:00 15.7 20 Noroeste 28 Norte 0 -- -- 84
2019-04-07 21:00:00 16 18 Norte 28 Norte 0 -- -- 82
2019-04-07 20:00:00 16.8 20 Norte 29 Norte 0 -- -- 77
2019-04-07 19:00:00 17.9 21 Noroeste 33 Noroeste 0 -- -- 70
2019-04-07 18:00:00 18.9 25 Noroeste 36 Noroeste 0 -- -- 67
2019-04-07 17:00:00 20 25 Noroeste 37 Noroeste 0 -- -- 62
2019-04-07 16:00:00 20 27 Noroeste 37 Noroeste 0 -- -- 62
2019-04-07 15:00:00 20 26 Noroeste 36 Noroeste 0 -- -- 62
2019-04-07 14:00:00 19.6 23 Noroeste 34 Noroeste 0 -- -- 65
2019-04-07 13:00:00 19.2 25 Noroeste 34 Noroeste 0 -- -- 65
2019-04-07 12:00:00 18.4 23 Noroeste 35 Noroeste 0 -- -- 71
2019-04-07 11:00:00 17.7 24 Noroeste 35 Noroeste 0 -- -- 76
2019-04-07 10:00:00 16.3 23 Noroeste 37 Noroeste 0.2 -- -- 82
2019-04-07 09:00:00 15.9 22 Noroeste 30 Noroeste 0 -- -- 79
2019-04-07 08:00:00 12.9 10 Norte 16 Noroeste 0 -- -- 88
2019-04-07 07:00:00 12.8 10 Norte 17 Noroeste 0 -- -- 87
2019-04-07 06:00:00 13 13 Noroeste 18 Noroeste 0 -- -- 85
2019-04-07 05:00:00 13.3 13 Noroeste 18 Noroeste 0 -- -- 84
2019-04-07 04:00:00 13.3 13 Noroeste 17 Noroeste 0 -- -- 84
2019-04-07 03:00:00 14 10 Noroeste 21 Noroeste 0 -- -- 77
2019-04-07 02:00:00 13 15 Noroeste 19 Noroeste 0 -- -- 79
2019-04-07 01:00:00 13 9 Norte 17 Norte 0 -- -- 76
2019-04-07 00:00:00 13.1 11 Norte 18 Noroeste 0 -- -- 76
2019-04-06 23:00:00 13.7 12 Noroeste 22 Noroeste 0 -- -- 75
2019-04-06 22:00:00 14.4 18 Noroeste 31 Norte 0 -- -- 73
2019-04-06 21:00:00 14.9 23 Norte 34 Norte 0 -- -- 74
2019-04-06 20:00:00 15.3 23 Norte 42 Norte 0 -- -- 71
2019-04-06 19:00:00 16.3 30 Norte 44 Norte 0 -- -- 61
2019-04-06 18:00:00 17.3 32 Norte 45 Norte 0 -- -- 59
2019-04-06 17:00:00 17.6 29 Norte 44 Noroeste 0 -- -- 64
2019-04-06 16:00:00 17.5 29 Noroeste 45 Noroeste 0 -- -- 55
2019-04-06 15:00:00 17.7 35 Norte 49 Norte 0 -- -- 58
2019-04-06 14:00:00 17.8 29 Norte 45 Noroeste 0 -- -- 56
2019-04-06 13:00:00 17.8 33 Noroeste 46 Noroeste 0 -- -- 61
2019-04-06 12:00:00 17.2 31 Norte 44 Noroeste 0 -- -- 63
2019-04-06 11:00:00 15.8 28 Noroeste 38 Noroeste 0 -- -- 70
2019-04-06 10:00:00 14.9 20 Noroeste 32 Noroeste 0 -- -- 79
2019-04-06 09:00:00 13.6 28 Noroeste 39 Noroeste 0 -- -- 82
2019-04-06 08:00:00 13.6 17 Noroeste 23 Norte 0 -- -- 77
2019-04-06 07:00:00 13.1 12 Norte 25 Norte 0 -- -- 85
2019-04-06 06:00:00 13.2 17 Norte 26 Norte 0 -- -- 84
2019-04-06 05:00:00 13.1 10 Norte 25 Noroeste 0 -- -- 89
2019-04-06 04:00:00 13 19 Noroeste 39 Noroeste 0.4 -- -- 91
2019-04-06 03:00:00 13.4 16 Noroeste 30 Norte 0 -- -- 83
2019-04-06 02:00:00 13 17 Noroeste 35 Norte 0 -- -- 89
2019-04-06 01:00:00 14.1 20 Noroeste 35 Noroeste 0 -- -- 79
2019-04-06 00:00:00 14.2 20 Noroeste 35 Norte 0 -- -- 81
2019-04-05 23:00:00 14 24 Noroeste 42 Norte 0.2 -- -- 88
2019-04-05 22:00:00 15 24 Noroeste 35 Noroeste 0 -- -- 77
2019-04-05 21:00:00 15.1 28 Noroeste 40 Noroeste 0 -- -- 73
2019-04-05 20:00:00 15.4 28 Noroeste 43 Noroeste 0 -- -- 75
2019-04-05 19:00:00 15 23 Noroeste 44 Noroeste 0.2 -- -- 78
2019-04-05 18:00:00 14.7 27 Noroeste 46 Noroeste 0.4 -- -- 87
2019-04-05 17:00:00 16.7 30 Noroeste 51 Noroeste 0 -- -- 74
2019-04-05 16:00:00 18 35 Noroeste 57 Noroeste 0 -- -- 70
2019-04-05 15:00:00 18.4 27 Noroeste 42 Noroeste 0 -- -- 64
2019-04-05 14:00:00 17.7 26 Noroeste 46 Noroeste 0 -- -- 70
2019-04-05 13:00:00 19.2 32 Noroeste 46 Noroeste 0 -- -- 57
2019-04-05 12:00:00 18.7 27 Noroeste 37 Noroeste 0 -- -- 63
2019-04-05 11:00:00 17.3 23 Noroeste 36 Oeste 0 -- -- 70
2019-04-05 10:00:00 15.4 21 Oeste 34 Noroeste 0 -- -- 76
2019-04-05 09:00:00 15.8 19 Noroeste 28 Noroeste 0 -- -- 71
2019-04-05 08:00:00 13.7 14 Noroeste 27 Noroeste 0 -- -- 77
2019-04-05 07:00:00 13.8 17 Noroeste 29 Noroeste 0 -- -- 76
2019-04-05 06:00:00 14.1 23 Noroeste 32 Noroeste 0 -- -- 75
2019-04-05 05:00:00 13.9 18 Noroeste 31 Noroeste 0 -- -- 72
2019-04-05 04:00:00 14 19 Noroeste 27 Noroeste 0 -- -- 72
2019-04-05 03:00:00 13.9 14 Noroeste 26 Noroeste 0 -- -- 78
2019-04-05 02:00:00 14.4 18 Noroeste 31 Noroeste 0 -- -- 78
2019-04-05 01:00:00 15.2 24 Noroeste 33 Noroeste 0 -- -- 76
2019-04-05 00:00:00 15 19 Noroeste 30 Norte 0 -- -- 75
2019-04-04 23:00:00 15.1 19 Norte 31 Noroeste 0 -- -- 76
2019-04-04 22:00:00 15.4 21 Noroeste 32 Noroeste 0 -- -- 77
2019-04-04 21:00:00 15.5 22 Noroeste 32 Noroeste 0 -- -- 75
2019-04-04 20:00:00 16 19 Noroeste 30 Noroeste 0 -- -- 74
2019-04-04 19:00:00 16.8 22 Noroeste 36 Noroeste 0 -- -- 72
2019-04-04 18:00:00 18.4 25 Noroeste 36 Noroeste 0 -- -- 63
2019-04-04 17:00:00 19 28 Noroeste 38 Noroeste 0 -- -- 61
2019-04-04 16:00:00 19.4 26 Noroeste 36 Noroeste 0 -- -- 59
2019-04-04 15:00:00 19.6 23 Noroeste 35 Noroeste 0 -- -- 59
2019-04-04 14:00:00 19.2 24 Noroeste 34 Noroeste 0 -- -- 65
2019-04-04 13:00:00 19.1 23 Noroeste 34 Noroeste 0 -- -- 63
2019-04-04 12:00:00 18.8 21 Noroeste 31 Noroeste 0 -- -- 66
2019-04-04 11:00:00 17.9 21 Noroeste 28 Noroeste 0 -- -- 69
2019-04-04 10:00:00 16.7 14 Noroeste 27 Noroeste 0 -- -- 81
2019-04-04 09:00:00 16.1 21 Noroeste 27 Noroeste 0 -- -- 82
2019-04-04 08:00:00 15 13 Noroeste 28 Noroeste 0 -- -- 86
2019-04-04 07:00:00 14.8 19 Noroeste 28 Noroeste 0 -- -- 83
2019-04-04 06:00:00 15.1 19 Noroeste 38 Oeste 0 -- -- 81
2019-04-04 05:00:00 15.1 22 Oeste 34 Oeste 0 -- -- 85
2019-04-04 04:00:00 15 22 Oeste 31 Oeste 0.4 -- -- 85
2019-04-04 03:00:00 15.2 12 Oeste 23 Sudoeste 0 -- -- 81
2019-04-04 02:00:00 15.2 7 Sudoeste 18 Oeste 0 -- -- 80
2019-04-04 01:00:00 15.5 9 Oeste 16 Oeste 0 -- -- 79
2019-04-04 00:00:00 15.5 9 Oeste 23 Oeste 0 -- -- 78
2019-04-03 23:00:00 15.7 15 Oeste 23 Oeste 0 -- -- 77
2019-04-03 22:00:00 15.9 13 Noroeste 24 Noroeste 0 -- -- 78
2019-04-03 21:00:00 16 16 Noroeste 27 Noroeste 0 -- -- 77
2019-04-03 20:00:00 16.5 19 Noroeste 32 Noroeste 0 -- -- 70
2019-04-03 19:00:00 17.2 26 Noroeste 37 Oeste 0 -- -- 71
2019-04-03 18:00:00 18.6 26 Noroeste 42 Noroeste 0 -- -- 62
2019-04-03 17:00:00 19.4 27 Oeste 48 Oeste 0 -- -- 60
2019-04-03 16:00:00 18.4 39 Oeste 51 Oeste 0 -- -- 66
2019-04-03 15:00:00 19.2 35 Oeste 46 Oeste 0 -- -- 66
2019-04-03 14:00:00 20.1 26 Noroeste 43 Oeste 0 -- -- 67
2019-04-03 13:00:00 19.9 22 Oeste 35 Oeste 0 -- -- 66
2019-04-03 12:00:00 18 23 Oeste 33 Oeste 0 -- -- 76
2019-04-03 11:00:00 18.4 22 Oeste 33 Oeste 0 -- -- 71
2019-04-03 10:00:00 18.2 24 Oeste 35 Oeste 0 -- -- 75
2019-04-03 09:00:00 16.8 20 Oeste 32 Oeste 0 -- -- 80
2019-04-03 08:00:00 15.1 11 Oeste 32 Oeste 0 -- -- 89
2019-04-03 07:00:00 14.9 16 Oeste 32 Oeste 0 -- -- 88
2019-04-03 06:00:00 15.1 21 Oeste 28 Oeste 0 -- -- 84
2019-04-03 05:00:00 14.5 11 Norte 19 Oeste 0 -- -- 77
2019-04-03 04:00:00 14.8 12 Noroeste 19 Noroeste 0 -- -- 80
2019-04-03 03:00:00 15.2 13 Noroeste 22 Noroeste 0 -- -- 85
2019-04-03 02:00:00 15.5 15 Noroeste 25 Oeste 0 -- -- 86
2019-04-03 01:00:00 15.6 14 Noroeste 21 Noroeste 0 -- -- 84
2019-04-03 00:00:00 15.7 12 Noroeste 19 Noroeste 0 -- -- 84
2019-04-02 23:00:00 16.1 14 Noroeste 25 Noroeste 0 -- -- 86
2019-04-02 22:00:00 16.3 18 Noroeste 32 Noroeste 0 -- -- 85
2019-04-02 21:00:00 16.5 22 Noroeste 33 Noroeste 0 -- -- 82
2019-04-02 20:00:00 17.3 24 Noroeste 41 Noroeste 0 -- -- 79
2019-04-02 19:00:00 19.2 32 Noroeste 42 Noroeste 0 -- -- 63
2019-04-02 18:00:00 20.3 29 Noroeste 41 Noroeste 0 -- -- 61
2019-04-02 17:00:00 22.1 24 Noroeste 33 Noroeste 0 -- -- 60
2019-04-02 16:00:00 24 15 Este 24 Este 0 -- -- 46
2019-04-02 15:00:00 22.8 6 Este 21 Este 0 -- -- 48
2019-04-02 14:00:00 22.2 11 Este 24 Este 0 -- -- 53
2019-04-02 13:00:00 21.1 14 Este 26 Este 0 -- -- 57
2019-04-02 12:00:00 19.9 14 Este 24 Este 0 -- -- 63
2019-04-02 11:00:00 18.7 10 Este 18 Este 0 -- -- 67
2019-04-02 10:00:00 17.2 9 Sudeste 18 Este 0 -- -- 80
2019-04-02 09:00:00 15.2 5 Sur 10 Sudeste 0 -- -- 93
2019-04-02 08:00:00 14.1 7 Sur 10 Sudeste 0 -- -- 92
2019-04-02 07:00:00 14.1 4 Sur 13 Sudeste 0 -- -- 91
2019-04-02 06:00:00 14.2 4 Sur 10 Sudoeste 0 -- -- 92
2019-04-02 05:00:00 14.4 0 Calma 9 Sur 0 -- -- 92
2019-04-02 04:00:00 14.3 6 Sur 10 Sudoeste 0 -- -- 92
2019-04-02 03:00:00 14.2 3 Sudoeste 5 Sur 0 -- -- 90
2019-04-02 02:00:00 13.9 0 Calma 9 Oeste 0 -- -- 90
2019-04-02 01:00:00 13.7 5 Oeste 9 Noroeste 0 -- -- 89
2019-04-02 00:00:00 13.6 8 Noroeste 9 Noroeste 0 -- -- 86
2019-04-01 23:00:00 14.4 4 Noroeste 6 Norte 0 -- -- 86
2019-04-01 22:00:00 15 5 Norte 10 Noroeste 0 -- -- 85
2019-04-01 21:00:00 16.2 9 Noroeste 13 Noroeste 0 -- -- 80
2019-04-01 20:00:00 17.3 7 Este 16 Este 0 -- -- 68
2019-04-01 19:00:00 17.8 5 Este 11 Este 0 -- -- 67
2019-04-01 18:00:00 17.9 5 Sudeste 14 Sur 0 -- -- 69
2019-04-01 17:00:00 17.3 6 Sur 17 Sur 0 -- -- 72
2019-04-01 16:00:00 17.6 5 Sudeste 13 Este 0 -- -- 69
2019-04-01 15:00:00 17.2 10 Este 24 Sudeste 0 -- -- 72
2019-04-01 14:00:00 18 13 Sudeste 20 Sudeste 0 -- -- 68
2019-04-01 13:00:00 19.4 8 Nordeste 18 Norte 0 -- -- 60
2019-04-01 12:00:00 19.4 9 Norte 17 Noroeste 0 -- -- 59
2019-04-01 11:00:00 18.6 9 Noroeste 18 Norte 0 -- -- 69
2019-04-01 10:00:00 17 11 Norte 16 Norte 0 -- -- 78
2019-04-01 09:00:00 15.3 13 Noroeste 17 Noroeste 0 -- -- 86
2019-04-01 08:00:00 13.3 10 Noroeste 18 Noroeste 0 -- -- 91
2019-04-01 07:00:00 13.9 13 Noroeste 21 Noroeste 0 -- -- 91
2019-04-01 06:00:00 14.3 9 Noroeste 19 Norte 0 -- -- 91
2019-04-01 05:00:00 14.4 9 Noroeste 13 Noroeste 0 -- -- 92
2019-04-01 04:00:00 14.4 3 Norte 17 Noroeste 0 -- -- 91
2019-04-01 03:00:00 15.1 10 Noroeste 19 Noroeste 0 -- -- 89
2019-04-01 02:00:00 15.2 13 Noroeste 18 Noroeste 0 -- -- 89
2019-04-01 01:00:00 15.4 12 Noroeste 15 Noroeste 0 -- -- 88
2019-04-01 00:00:00 15.3 6 Noroeste 15 Noroeste 0 -- -- 83
2019-03-31 23:00:00 16.1 10 Oeste 26 Oeste 0 -- -- 83
2019-03-31 22:00:00 16.1 14 Oeste 37 Oeste 0 -- -- 82
2019-03-31 21:00:00 16.4 25 Oeste 41 Oeste 0 -- -- 82
2019-03-31 20:00:00 16.6 15 Oeste 39 Oeste 0 -- -- 79
2019-03-31 19:00:00 17.3 31 Oeste 43 Oeste 0 -- -- 74
2019-03-31 18:00:00 17.3 28 Oeste 42 Oeste 0 -- -- 74
2019-03-31 17:00:00 18.4 27 Oeste 43 Oeste 0 -- -- 68
2019-03-31 16:00:00 19.6 26 Oeste 39 Noroeste 0 -- -- 65
2019-03-31 15:00:00 19.5 28 Oeste 41 Oeste 0 -- -- 66
2019-03-31 14:00:00 19.7 24 Oeste 35 Oeste 0 -- -- 62
2019-03-31 13:00:00 19.1 19 Oeste 32 Noroeste 0 -- -- 66
2019-03-31 12:00:00 18.5 20 Oeste 32 Noroeste 0 -- -- 65
2019-03-31 11:00:00 18.1 15 Oeste 30 Oeste 0 -- -- 67
2019-03-31 10:00:00 17.3 14 Oeste 31 Oeste 0 -- -- 73
2019-03-31 09:00:00 15.9 17 Oeste 25 Oeste 0 -- -- 75
2019-03-31 08:00:00 14 9 Oeste 21 Noroeste 0 -- -- 82
2019-03-31 07:00:00 14.5 16 Noroeste 30 Oeste 0 -- -- 80
2019-03-31 06:00:00 14.5 19 Noroeste 32 Noroeste 0 -- -- 80
2019-03-31 05:00:00 14.6 26 Noroeste 38 Noroeste 0 -- -- 81
2019-03-31 04:00:00 14.3 18 Noroeste 28 Noroeste 0 -- -- 83
2019-03-31 00:00:00 14.7 16 Noroeste 27 Noroeste 0 -- -- 83
2019-03-30 23:00:00 15 17 Noroeste 25 Noroeste 0 -- -- 81
2019-03-30 22:00:00 15.1 15 Noroeste 32 Noroeste 0 -- -- 80
2019-03-30 21:00:00 15.3 23 Noroeste 32 Noroeste 0 -- -- 77
2019-03-30 20:00:00 15.5 22 Noroeste 33 Noroeste 0 -- -- 75
2019-03-30 19:00:00 16.3 17 Noroeste 26 Noroeste 0 -- -- 72
2019-03-30 18:00:00 17.9 18 Noroeste 29 Noroeste 0 -- -- 62
2019-03-30 17:00:00 18.5 21 Noroeste 33 Noroeste 0 -- -- 63
2019-03-30 16:00:00 19.4 21 Noroeste 35 Noroeste 0 -- -- 59
2019-03-30 15:00:00 20.1 15 Noroeste 27 Noroeste 0 -- -- 57
2019-03-30 14:00:00 19.9 15 Noroeste 28 Noroeste 0 -- -- 58
2019-03-30 13:00:00 19.5 11 Noroeste 32 Norte 0 -- -- 57
2019-03-30 12:00:00 19.1 17 Noroeste 30 Noroeste 0 -- -- 61
2019-03-30 11:00:00 18.4 14 Norte 22 Norte 0 -- -- 63
2019-03-30 10:00:00 17.5 11 Norte 18 Norte 0 -- -- 71
2019-03-30 09:00:00 16.1 9 Norte 15 Norte 0 -- -- 77
2019-03-30 08:00:00 13.4 4 Noroeste 9 Oeste 0 -- -- 95
2019-03-30 07:00:00 11.3 7 Oeste 9 Oeste 0 -- -- 95
2019-03-30 06:00:00 11.4 5 Noroeste 10 Noroeste 0 -- -- 94
2019-03-30 05:00:00 11.4 4 Noroeste 7 Noroeste 0 -- -- 95
2019-03-30 04:00:00 11.6 4 Noroeste 7 Noroeste 0 -- -- 94
2019-03-30 03:00:00 12.5 5 Norte 15 Noroeste 0 -- -- 92
2019-03-30 02:00:00 13.5 12 Noroeste 20 Noroeste 0 -- -- 92
2019-03-30 01:00:00 13.6 7 Noroeste 18 Noroeste 0 -- -- 91
2019-03-30 00:00:00 14 14 Noroeste 18 Noroeste 0 -- -- 90
2019-03-29 23:00:00 13.8 10 Noroeste 13 Noroeste 0 -- -- 90
2019-03-29 22:00:00 14.4 11 Noroeste 19 Noroeste 0 -- -- 88
2019-03-29 21:00:00 14.7 13 Noroeste 19 Noroeste 0 -- -- 87
2019-03-29 20:00:00 15.6 13 Noroeste 19 Noroeste 0 -- -- 83
2019-03-29 19:00:00 16.8 12 Norte 21 Norte 0 -- -- 76
2019-03-29 18:00:00 17.6 17 Norte 26 Norte 0 -- -- 74
2019-03-29 17:00:00 18.2 19 Noroeste 27 Noroeste 0 -- -- 73
2019-03-29 16:00:00 18 15 Norte 21 Norte 0 -- -- 75
2019-03-29 15:00:00 17.5 10 Noroeste 23 Oeste 1.4 -- -- 78
2019-03-29 14:00:00 18.5 11 Norte 25 Norte 0 -- -- 71
2019-03-29 13:00:00 19.7 3 Nordeste 18 Este 0 -- -- 57
2019-03-29 12:00:00 19.3 7 Este 15 Sudeste 0 -- -- 61
2019-03-29 11:00:00 18.4 6 Sur 14 Sudeste 0 -- -- 69
2019-03-29 10:00:00 16.8 6 Sudeste 15 Sudeste 0 -- -- 76
2019-03-29 09:00:00 15.7 4 Sudeste 9 Sudeste 0 -- -- 84
2019-03-29 08:00:00 13.9 0 Calma 10 Noroeste 0 -- -- 95
2019-03-29 07:00:00 11.7 8 Oeste 9 Oeste 0 -- -- 94
2019-03-29 06:00:00 11.9 4 Oeste 7 Oeste 0 -- -- 94
2019-03-29 05:00:00 12.7 3 Oeste 9 Oeste 0 -- -- 95
2019-03-29 04:00:00 12.5 7 Noroeste 8 Noroeste 0 -- -- 95
2019-03-29 03:00:00 12.7 4 Noroeste 7 Noroeste 0 -- -- 95
2019-03-29 02:00:00 13.4 3 Noroeste 8 Norte 0 -- -- 95
2019-03-29 01:00:00 13.3 5 Norte 10 Norte 0 -- -- 93
2019-03-29 00:00:00 14 5 Norte 9 Norte 0 -- -- 94
2019-03-28 23:00:00 14.1 6 Noroeste 10 Norte 0 -- -- 93
2019-03-28 22:00:00 14.5 4 Norte 8 Norte 0 -- -- 91
2019-03-28 21:00:00 14.9 6 Norte 12 Noroeste 0 -- -- 88
2019-03-28 20:00:00 15.5 8 Norte 17 Noroeste 0 -- -- 85
2019-03-28 19:00:00 17 12 Noroeste 16 Noroeste 0 -- -- 78
2019-03-28 18:00:00 18.8 7 Norte 13 Norte 0 -- -- 71
2019-03-28 17:00:00 18 8 Norte 14 Norte 0 -- -- 77
2019-03-28 16:00:00 17.3 9 Norte 16 Noroeste 0 -- -- 83
2019-03-28 15:00:00 16.1 9 Noroeste 13 Noroeste 0 -- -- 91
2019-03-28 14:00:00 15.8 6 Norte 29 Sudeste 22.2 -- -- 93
2019-03-28 13:00:00 18.6 11 Nordeste 24 Norte 0 -- -- 71
2019-03-28 12:00:00 19.8 5 Noroeste 13 Noroeste 0 -- -- 65
2019-03-28 11:00:00 18.7 5 Nordeste 13 Este 0 -- -- 68
2019-03-28 10:00:00 17.8 6 Nordeste 14 Norte 0 -- -- 75
2019-03-28 09:00:00 16.1 10 Norte 14 Norte 0 -- -- 86
2019-03-28 08:00:00 14.9 6 Norte 16 Noroeste 0 -- -- 95
2019-03-28 07:00:00 13.7 11 Noroeste 15 Noroeste 0 -- -- 96
2019-03-28 06:00:00 13.7 12 Noroeste 16 Noroeste 0 -- -- 95
2019-03-28 05:00:00 13.9 12 Noroeste 17 Noroeste 0 -- -- 94
2019-03-28 04:00:00 14.2 13 Noroeste 16 Noroeste 0 -- -- 93
2019-03-28 03:00:00 13.4 10 Noroeste 14 Noroeste 0 -- -- 93
2019-03-28 02:00:00 13.8 8 Noroeste 11 Noroeste 0 -- -- 92
2019-03-28 01:00:00 14.1 6 Noroeste 12 Noroeste 0 -- -- 93
2019-03-28 00:00:00 14.7 9 Noroeste 13 Noroeste 0 -- -- 93
2019-03-27 23:00:00 15.1 8 Noroeste 17 Norte 0 -- -- 91
2019-03-27 22:00:00 15.7 12 Norte 18 Norte 0 -- -- 89
2019-03-27 21:00:00 15.8 8 Norte 21 Noroeste 0 -- -- 86
2019-03-27 20:00:00 16.1 17 Noroeste 24 Norte 0 -- -- 85
2019-03-27 19:00:00 16.8 18 Noroeste 28 Noroeste 0 -- -- 81
2019-03-27 18:00:00 17.9 21 Noroeste 30 Noroeste 0 -- -- 76
2019-03-27 17:00:00 19.1 21 Noroeste 31 Noroeste 0 -- -- 69
2019-03-27 16:00:00 19.3 17 Noroeste 27 Noroeste 0 -- -- 71
2019-03-27 15:00:00 20 17 Norte 28 Norte 0 -- -- 63
2019-03-27 14:00:00 19.5 18 Noroeste 27 Norte 0 -- -- 67
2019-03-27 13:00:00 20 15 Norte 24 Noroeste 0 -- -- 65
2019-03-27 12:00:00 20 14 Noroeste 25 Norte 0 -- -- 66
2019-03-27 11:00:00 18.8 10 Noroeste 17 Oeste 0 -- -- 68
2019-03-27 10:00:00 18.1 7 Oeste 17 Noroeste 0 -- -- 70
2019-03-27 09:00:00 17.1 7 Noroeste 14 Noroeste 0 -- -- 83
2019-03-27 08:00:00 14.3 2 Noroeste 5 Oeste 0 -- -- 95
2019-03-27 07:00:00 12.7 4 Norte 17 Oeste 0 -- -- 94
2019-03-27 06:00:00 12.8 9 Oeste 13 Oeste 0 -- -- 95
2019-03-27 05:00:00 -- 5 Noroeste 7 Norte 0 -- -- --
2019-03-27 04:00:00 12.6 0 Calma 6 Noroeste 0 -- -- 92
2019-03-27 03:00:00 13 4 Norte 14 Oeste 0 -- -- 89
2019-03-27 02:00:00 14.1 7 Noroeste 20 Noroeste 0 -- -- 85
2019-03-27 01:00:00 14.2 10 Noroeste 21 Noroeste 0 -- -- 87
2019-03-27 00:00:00 14.1 12 Noroeste 21 Noroeste 0 -- -- 89
2019-03-26 23:00:00 14.3 15 Noroeste 20 Noroeste 0 -- -- 87
2019-03-26 22:00:00 14.3 8 Noroeste 19 Noroeste 0 -- -- 88
2019-03-26 21:00:00 15 13 Noroeste 19 Noroeste 0 -- -- 88
2019-03-26 20:00:00 15.1 14 Noroeste 17 Noroeste 0 -- -- 85
2019-03-26 19:00:00 16 13 Noroeste 24 Noroeste 0 -- -- 80
2019-03-26 18:00:00 17.9 17 Norte 23 Norte 0 -- -- 71
2019-03-26 17:00:00 18.6 18 Oeste 26 Oeste 0 -- -- 68
2019-03-26 16:00:00 18.6 9 Oeste 18 Oeste 0 -- -- 73
2019-03-26 15:00:00 15.2 5 Noroeste 17 Norte 11.4 -- -- 94
2019-03-26 14:00:00 15.4 3 Este 14 Sudeste 6.6 -- -- 88
2019-03-26 13:00:00 15.5 8 Norte 16 Norte 3.2 -- -- 88
2019-03-26 12:00:00 16.8 10 Sur 23 Sudoeste 5.2 -- -- 81
2019-03-26 11:00:00 18.6 5 Sudeste 12 Sudeste 0 -- -- 69
2019-03-26 10:00:00 16.2 6 Sudeste 10 Este 0 -- -- 89
2019-03-26 09:00:00 14.3 3 Sur 12 Este 0 -- -- 94
2019-03-26 08:00:00 13.7 2 Sur 6 Sur 0 -- -- 95
2019-03-26 07:00:00 12.9 4 Sur 14 Nordeste 0.2 -- -- 92
2019-03-26 06:00:00 12.7 4 Norte 9 Noroeste 0 -- -- 95
2019-03-26 05:00:00 11.9 4 Noroeste 5 Noroeste 0 -- -- 94
2019-03-26 04:00:00 12.4 0 Calma 7 Sur 0 -- -- 94
2019-03-26 03:00:00 12.4 0 Calma 8 Sur 0 -- -- 93
2019-03-26 02:00:00 12.7 4 Sur 11 Sudoeste 0 -- -- 92
2019-03-26 01:00:00 13 4 Sur 12 Sur 0 -- -- 90
2019-03-26 00:00:00 13.4 7 Sur 13 Sur 0 -- -- 86
2019-03-25 23:00:00 12.9 0 Calma 7 Sur 0 -- -- 87
2019-03-25 22:00:00 13.2 0 Calma 9 Sur 0 -- -- 87
2019-03-25 21:00:00 13.9 4 Sur 14 Nordeste 1 -- -- 86
2019-03-25 20:00:00 14.1 10 Oeste 36 Sudoeste 0.8 -- -- 84
2019-03-25 19:00:00 15.6 26 Sudoeste 41 Oeste 0 -- -- 75
2019-03-25 18:00:00 16.3 20 Sudoeste 32 Oeste 0 -- -- 76
2019-03-25 17:00:00 17.9 19 Sur 31 Sur 0 -- -- 68
2019-03-25 16:00:00 19 13 Sudoeste 36 Oeste 0 -- -- 59
2019-03-25 15:00:00 19.4 19 Oeste 36 Oeste 0 -- -- 56
2019-03-25 14:00:00 19.1 28 Oeste 37 Oeste 0 -- -- 59
2019-03-25 13:00:00 19.5 27 Oeste 37 Sudoeste 0 -- -- 54
2019-03-25 12:00:00 19.3 20 Oeste 30 Sudoeste 0 -- -- 53
2019-03-25 11:00:00 19.2 22 Oeste 30 Sudoeste 0 -- -- 64
2019-03-25 10:00:00 18.5 18 Oeste 27 Sudoeste 0 -- -- 71
2019-03-25 09:00:00 17.2 18 Oeste 26 Oeste 0 -- -- 76
2019-03-25 08:00:00 15.7 15 Oeste 27 Oeste 0 -- -- 81
2019-03-25 07:00:00 14.4 18 Oeste 30 Oeste 0 -- -- 86
2019-03-25 06:00:00 13.8 9 Oeste 19 Oeste 0 -- -- 84
2019-03-25 05:00:00 14.2 8 Sudoeste 10 Sudoeste 0 -- -- 70
2019-03-25 04:00:00 14.3 5 Oeste 9 Sudoeste 0 -- -- 75
2019-03-25 03:00:00 13.9 5 Sudoeste 12 Oeste 0 -- -- 86
2019-03-25 02:00:00 14.3 8 Oeste 10 Oeste 0 -- -- 93
2019-03-25 01:00:00 14.1 4 Oeste 8 Oeste 0 -- -- 93
2019-03-25 00:00:00 13.8 7 Noroeste 13 Noroeste 0 -- -- 89
2019-03-24 23:00:00 14.4 9 Noroeste 18 Noroeste 0 -- -- 88
2019-03-24 22:00:00 15 14 Noroeste 22 Noroeste 0 -- -- 88
2019-03-24 21:00:00 15.1 16 Norte 26 Noroeste 0 -- -- 87
2019-03-24 20:00:00 15.7 19 Noroeste 33 Noroeste 0 -- -- 83
2019-03-24 19:00:00 16.4 23 Noroeste 38 Noroeste 0 -- -- 82
2019-03-24 18:00:00 18.3 26 Noroeste 33 Noroeste 0 -- -- 74
2019-03-24 17:00:00 21 12 Norte 23 Norte 0 -- -- 61
2019-03-24 16:00:00 21.5 10 Sudeste 26 Este 0 -- -- 55
2019-03-24 15:00:00 22 15 Este 25 Este 0 -- -- 53
2019-03-24 14:00:00 21.5 10 Nordeste 25 Este 0 -- -- 57
2019-03-24 13:00:00 21.6 14 Este 25 Este 0 -- -- 50
2019-03-24 12:00:00 21.4 12 Este 28 Este 0 -- -- 49
2019-03-24 11:00:00 19.8 5 Norte 22 Noroeste 0 -- -- 52
2019-03-24 10:00:00 17.9 12 Norte 23 Noroeste 0 -- -- 65
2019-03-24 09:00:00 16 15 Norte 26 Norte 0 -- -- 79
2019-03-24 08:00:00 14.4 17 Norte 28 Noroeste 0 -- -- 84
2019-03-24 07:00:00 12.8 13 Noroeste 29 Noroeste 0 -- -- 87
2019-03-24 06:00:00 12.9 23 Noroeste 29 Noroeste 0 -- -- 86
2019-03-24 05:00:00 11.7 13 Noroeste 14 Noroeste 0 -- -- 89
2019-03-24 04:00:00 11.9 11 Noroeste 14 Noroeste 0 -- -- 89
2019-03-24 03:00:00 12.2 9 Noroeste 14 Noroeste 0 -- -- 88
2019-03-24 02:00:00 12.6 7 Norte 17 Noroeste 0 -- -- 87
2019-03-24 01:00:00 12.6 11 Noroeste 20 Noroeste 0 -- -- 87
2019-03-24 00:00:00 13.5 13 Noroeste 19 Noroeste 0 -- -- 84
2019-03-23 23:00:00 14 12 Noroeste 19 Norte 0 -- -- 83
2019-03-23 22:00:00 14.3 17 Norte 31 Noroeste 0 -- -- 81
2019-03-23 21:00:00 14.6 21 Noroeste 36 Noroeste 0 -- -- 80
2019-03-23 20:00:00 14.9 26 Noroeste 55 Noroeste 0 -- -- 78
2019-03-23 19:00:00 15.4 42 Noroeste 58 Noroeste 0 -- -- 77
2019-03-23 18:00:00 16.4 40 Noroeste 52 Norte 0 -- -- 72
2019-03-23 17:00:00 17.4 39 Noroeste 52 Norte 0 -- -- 66
2019-03-23 16:00:00 19.1 34 Noroeste 54 Noroeste 0 -- -- 63
2019-03-23 15:00:00 19.8 28 Noroeste 41 Norte 0 -- -- 63
2019-03-23 14:00:00 19.7 15 Norte 32 Noroeste 0 -- -- 63
2019-03-23 13:00:00 20 25 Noroeste 46 Noroeste 0 -- -- 62
2019-03-23 12:00:00 19.8 32 Noroeste 45 Noroeste 0 -- -- 61
2019-03-23 11:00:00 18.7 33 Norte 44 Norte 0 -- -- 66
2019-03-23 10:00:00 17.2 35 Norte 49 Norte 0 -- -- 73
2019-03-23 09:00:00 15.8 35 Norte 47 Noroeste 0 -- -- 81
2019-03-23 08:00:00 14.4 32 Noroeste 43 Noroeste 0 -- -- 87
2019-03-23 07:00:00 13.7 19 Noroeste 26 Noroeste 0 -- -- 88
2019-03-23 06:00:00 13.3 13 Noroeste 19 Noroeste 0 -- -- 89
2019-03-23 05:00:00 13.6 14 Norte 21 Norte 0 -- -- 89
2019-03-23 04:00:00 13.7 12 Norte 19 Norte 0 -- -- 86
2019-03-23 03:00:00 14.1 13 Noroeste 26 Norte 0 -- -- 84
2019-03-23 02:00:00 14.5 17 Nordeste 28 Nordeste 0 -- -- 88
2019-03-23 01:00:00 14.8 12 Nordeste 31 Norte 0 -- -- 80
2019-03-23 00:00:00 14.9 12 Norte 32 Nordeste 0 -- -- 88
2019-03-22 23:00:00 14.9 9 Nordeste 33 Nordeste 0 -- -- 86
2019-03-22 22:00:00 15.3 13 Nordeste 26 Nordeste 0 -- -- 81
2019-03-22 21:00:00 15.8 16 Nordeste 29 Nordeste 0 -- -- 80
2019-03-22 20:00:00 16.4 16 Norte 28 Nordeste 0 -- -- 79
2019-03-22 19:00:00 18.1 14 Norte 35 Norte 0 -- -- 71
2019-03-22 18:00:00 20.1 18 Nordeste 31 Nordeste 0 -- -- 57
2019-03-22 17:00:00 20.6 21 Nordeste 35 Nordeste 0 -- -- 57
2019-03-22 16:00:00 20.5 22 Nordeste 35 Nordeste 0 -- -- 58
2019-03-22 15:00:00 21.3 21 Nordeste 34 Nordeste 0 -- -- 55
2019-03-22 14:00:00 20.6 22 Nordeste 34 Norte 0 -- -- 55
2019-03-22 13:00:00 20.4 20 Nordeste 34 Nordeste 0 -- -- 53
2019-03-22 12:00:00 19.4 22 Nordeste 36 Nordeste 0 -- -- 61
2019-03-22 11:00:00 18.1 21 Nordeste 40 Nordeste 0 -- -- 64
2019-03-22 10:00:00 17.1 22 Norte 37 Nordeste 0 -- -- 70
2019-03-22 09:00:00 15.2 22 Nordeste 36 Norte 0 -- -- 74
2019-03-22 08:00:00 14.3 17 Nordeste 29 Nordeste 0 -- -- 75
2019-03-22 07:00:00 12.7 10 Norte 24 Norte 0 -- -- 80
2019-03-22 06:00:00 12.7 11 Norte 21 Norte 0 -- -- 82
2019-03-22 05:00:00 11.8 13 Norte 20 Norte 0 -- -- 83
2019-03-22 04:00:00 12.5 13 Norte 27 Nordeste 0 -- -- 79
2019-03-22 03:00:00 13.4 14 Norte 29 Nordeste 0 -- -- 79
2019-03-22 02:00:00 13.7 14 Nordeste 24 Norte 0 -- -- 78
2019-03-22 01:00:00 13.8 15 Nordeste 26 Norte 0 -- -- 79
2019-03-22 00:00:00 14 11 Nordeste 29 Norte 0 -- -- 77
2019-03-21 23:00:00 14.2 17 Nordeste 29 Nordeste 0 -- -- 74
2019-03-21 22:00:00 14.4 12 Norte 27 Nordeste 0 -- -- 73
2019-03-21 21:00:00 14.8 13 Nordeste 26 Nordeste 0 -- -- 72
2019-03-21 20:00:00 15.3 17 Norte 30 Nordeste 0 -- -- 70
2019-03-21 19:00:00 16.1 19 Nordeste 36 Nordeste 0 -- -- 69
2019-03-21 18:00:00 17.6 24 Nordeste 40 Nordeste 0 -- -- 64
2019-03-21 17:00:00 18.5 27 Nordeste 40 Nordeste 0 -- -- 62
2019-03-21 16:00:00 19.3 25 Nordeste 40 Nordeste 0 -- -- 54
2019-03-21 15:00:00 19.2 26 Nordeste 38 Nordeste 0 -- -- 53
2019-03-21 14:00:00 20.5 22 Nordeste 38 Nordeste 0 -- -- 51
2019-03-21 13:00:00 20.3 24 Nordeste 38 Nordeste 0 -- -- 54
2019-03-21 12:00:00 19.3 22 Nordeste 39 Nordeste 0 -- -- 63
2019-03-21 11:00:00 17.9 20 Nordeste 31 Nordeste 0 -- -- 68
2019-03-21 10:00:00 16.2 19 Nordeste 31 Nordeste 0 -- -- 76
2019-03-21 09:00:00 16.3 16 Norte 33 Norte 0 -- -- 78
2019-03-21 08:00:00 14.5 13 Norte 23 Norte 0 -- -- 87
2019-03-21 07:00:00 13.4 7 Norte 20 Norte 0 -- -- 86
2019-03-21 06:00:00 13.5 12 Norte 23 Norte 0 -- -- 87
2019-03-21 05:00:00 14 13 Nordeste 27 Nordeste 0 -- -- 88
2019-03-21 04:00:00 14.3 13 Norte 25 Norte 0 -- -- 87
2019-03-21 03:00:00 14.7 13 Norte 26 Norte 0 -- -- 85
2019-03-21 02:00:00 14.2 8 Norte 26 Norte 0 -- -- 87
2019-03-21 01:00:00 13.8 12 Norte 22 Nordeste 0 -- -- 89
2019-03-21 00:00:00 14.2 7 Norte 20 Nordeste 0 -- -- 86
2019-03-20 23:00:00 14.7 9 Nordeste 18 Nordeste 0 -- -- 81
2019-03-20 22:00:00 14.7 4 Norte 13 Norte 0 -- -- 85
2019-03-20 21:00:00 15.4 6 Norte 21 Norte 0 -- -- 83
2019-03-20 20:00:00 16 15 Nordeste 29 Nordeste 0 -- -- 80
2019-03-20 19:00:00 16.9 17 Nordeste 29 Nordeste 0 -- -- 77
2019-03-20 18:00:00 18.7 18 Nordeste 31 Nordeste 0 -- -- 70
2019-03-20 17:00:00 20.5 20 Nordeste 29 Nordeste 0 -- -- 62
2019-03-20 16:00:00 21.2 20 Este 32 Este 0 -- -- 56
2019-03-20 15:00:00 21.5 19 Nordeste 29 Este 0 -- -- 54
2019-03-20 14:00:00 21.4 16 Nordeste 28 Nordeste 0 -- -- 55
2019-03-20 13:00:00 21.5 18 Nordeste 30 Nordeste 0 -- -- 52
2019-03-20 12:00:00 20.9 21 Nordeste 30 Nordeste 0 -- -- 56
2019-03-20 11:00:00 19.3 19 Nordeste 27 Nordeste 0 -- -- 61
2019-03-20 10:00:00 17.4 19 Nordeste 29 Nordeste 0 -- -- 72
2019-03-20 09:00:00 15 10 Norte 20 Norte 0 -- -- 85
2019-03-20 08:00:00 11.4 6 Noroeste 12 Noroeste 0 -- -- 93
2019-03-20 07:00:00 12 10 Noroeste 16 Norte 0 -- -- 92
2019-03-20 06:00:00 12.7 11 Norte 32 Noroeste 0 -- -- 90
2019-03-20 05:00:00 13.1 26 Noroeste 35 Noroeste 0 -- -- 89
2019-03-20 04:00:00 12.6 22 Noroeste 30 Noroeste 0 -- -- 89
2019-03-20 03:00:00 12.3 15 Noroeste 25 Noroeste 0 -- -- 90
2019-03-20 02:00:00 12 7 Norte 15 Noroeste 0 -- -- 87
2019-03-20 01:00:00 12.7 11 Noroeste 15 Norte 0 -- -- 84
2019-03-20 00:00:00 13.6 6 Norte 18 Nordeste 0 -- -- 81
2019-03-19 23:00:00 14.5 9 Nordeste 15 Nordeste 0 -- -- 79
2019-03-19 22:00:00 14.5 13 Nordeste 18 Nordeste 0 -- -- 79
2019-03-19 21:00:00 14.4 15 Norte 27 Norte 0 -- -- 79
2019-03-19 20:00:00 14.8 19 Norte 35 Norte 0 -- -- 78
2019-03-19 19:00:00 15.7 28 Norte 41 Norte 0 -- -- 73
2019-03-19 18:00:00 17.6 27 Norte 45 Noroeste 0 -- -- 66
2019-03-19 17:00:00 18.4 32 Noroeste 45 Noroeste 0 -- -- 64
2019-03-19 16:00:00 19.4 34 Noroeste 45 Noroeste 0 -- -- 60
2019-03-19 15:00:00 20 33 Noroeste 45 Noroeste 0 -- -- 58
2019-03-19 14:00:00 21.1 18 Norte 38 Norte 0 -- -- 55
2019-03-19 13:00:00 20.4 19 Norte 32 Norte 0 -- -- 54
2019-03-19 12:00:00 19.8 18 Nordeste 33 Este 0 -- -- 54
2019-03-19 11:00:00 18.2 19 Nordeste 33 Nordeste 0 -- -- 61
2019-03-19 10:00:00 16.6 18 Nordeste 31 Nordeste 0 -- -- 66
2019-03-19 09:00:00 15 15 Nordeste 22 Nordeste 0 -- -- 75
2019-03-19 08:00:00 13.5 9 Norte 15 Noroeste 0 -- -- 84
2019-03-19 07:00:00 12.1 9 Norte 19 Norte 0 -- -- 87
2019-03-19 06:00:00 12.5 12 Norte 23 Norte 0 -- -- 86
2019-03-19 05:00:00 12.8 14 Norte 27 Norte 0 -- -- 84
2019-03-19 04:00:00 13.2 19 Norte 28 Norte 0 -- -- 82
2019-03-19 03:00:00 14 13 Norte 30 Norte 0 -- -- 77
2019-03-19 02:00:00 15 17 Norte 29 Norte 0 -- -- 75
2019-03-19 01:00:00 15.1 17 Norte 32 Norte 0 -- -- 74
2019-03-19 00:00:00 15.6 19 Nordeste 36 Nordeste 0 -- -- 73